This is the latest recevied weather packets stored in our database for station/object KQ4DLB-13. If no packets are shown the sender has not sent any weather packets the latest 10 day(s).
| Time | Temp. | Humidity | Pressure | Rain* | Wind** | Luminosity | Snow |
|---|---|---|---|---|---|---|---|
| 1777652103 | 16.11° C | 62% | 991.6 hPa | 0 mm | - | 254 W/m² | - |
| 1777651802 | 16.11° C | 63% | 991.7 hPa | 0 mm | - | 257 W/m² | - |
| 1777651502 | 16.11° C | 63% | 991.8 hPa | 0 mm | - | 260 W/m² | - |
| 1777651202 | 16.11° C | 65% | 991.7 hPa | 0 mm | - | 209 W/m² | - |
| 1777650902 | 16.67° C | 65% | 991.8 hPa | 0 mm | - | 230 W/m² | - |
| 1777650603 | 16.67° C | 63% | 991.8 hPa | 0 mm | - | 226 W/m² | - |
| 1777650302 | 16.67° C | 64% | 991.8 hPa | 0 mm | - | 214 W/m² | - |
| 1777650002 | 16.11° C | 65% | 991.7 hPa | 0 mm | - | 237 W/m² | - |
| 1777649701 | 16.11° C | 67% | 991.6 hPa | 0 mm | - | 261 W/m² | - |
| 1777649402 | 16.11° C | 66% | 991.7 hPa | 0 mm | - | 343 W/m² | - |
| 1777649102 | 16.67° C | 64% | 991.8 hPa | 0 mm | - | 586 W/m² | - |
| 1777648802 | 16.67° C | 63% | 991.9 hPa | 0 mm | - | 658 W/m² | - |
| 1777648502 | 16.67° C | 64% | 992 hPa | 0 mm | - | 694 W/m² | - |
| 1777648203 | 16.67° C | 64% | 992 hPa | 0 mm | - | 657 W/m² | - |
| 1777647902 | 16.67° C | 62% | 992 hPa | 0 mm | - | 673 W/m² | - |
| 1777647602 | 16.67° C | 62% | 991.9 hPa | 0 mm | - | 606 W/m² | - |
| 1777647302 | 16.67° C | 61% | 991.9 hPa | 0 mm | - | 593 W/m² | - |
| 1777646703 | 15.56° C | 60% | 991.8 hPa | 0 mm | - | 618 W/m² | - |
| 1777646403 | 15.56° C | 60% | 991.7 hPa | 0 mm | - | 594 W/m² | - |
| 1777646102 | 15° C | 62% | 991.4 hPa | 0 mm | - | 589 W/m² | - |
| 1777645802 | 15° C | 60% | 991.2 hPa | 0 mm | - | 322 W/m² | - |
| 1777645502 | 15° C | 59% | 991.1 hPa | 0 mm | - | 138 W/m² | - |
| 1777645202 | 15° C | 59% | 991 hPa | 0 mm | - | 246 W/m² | - |
| 1777644902 | 15.56° C | 61% | 991.1 hPa | 0 mm | - | 388 W/m² | - |
| 1777644602 | 15° C | 56% | 991.1 hPa | 0 mm | - | 399 W/m² | - |
* Rain latest hour (hover to see other rain measurements)
** Current wind speed in m/s (hover to see current wind gust speed)